Time;durP1;ratioP1;P1;durP2;ratioP2;P2;SDS_P1;SDS_P2;PMS_P1;PMS_P2;Temp;Humidity;BMP_temperature;BMP_pressure;BME280_temperature;BME280_humidity;BME280_pressure;Samples;Min_cycle;Max_cycle;Signal;HPM_P1;HPM_P2
2024/03/12 00:01:25;;;;;;;0.30;0.20;;;10.90;99.90;;;;;;5065741;28;20179;-77
2024/03/12 00:03:52;;;;;;;0.30;0.20;;;10.80;99.90;;;;;;5065088;28;20587;-75
2024/03/12 00:06:19;;;;;;;0.30;0.20;;;10.80;99.90;;;;;;5065293;28;20180;-75
2024/03/12 00:08:45;;;;;;;0.30;0.20;;;10.80;99.90;;;;;;5064803;28;20662;-77
2024/03/12 00:11:10;;;;;;;0.30;0.20;;;10.70;99.90;;;;;;5065551;28;20183;-75
2024/03/12 00:13:36;;;;;;;0.30;0.20;;;10.70;99.90;;;;;;5063376;28;20674;-75
2024/03/12 00:16:02;;;;;;;0.30;0.20;;;10.60;99.90;;;;;;5065637;28;20177;-75
2024/03/12 00:18:28;;;;;;;0.30;0.20;;;10.60;99.90;;;;;;5063354;28;20234;-76
2024/03/12 00:20:54;;;;;;;0.30;0.20;;;10.50;99.90;;;;;;5063895;28;20181;-75
2024/03/12 00:23:20;;;;;;;0.30;0.20;;;10.50;99.90;;;;;;5064843;28;20197;-75
2024/03/12 00:25:46;;;;;;;0.30;0.20;;;10.40;99.90;;;;;;5065218;28;20682;-75
2024/03/12 00:28:12;;;;;;;0.30;0.20;;;10.40;99.90;;;;;;5063564;28;20208;-75
2024/03/12 00:30:40;;;;;;;0.30;0.20;;;10.40;99.90;;;;;;5065076;28;20183;-75
2024/03/12 00:33:07;;;;;;;0.30;0.20;;;10.40;99.90;;;;;;5064688;28;20201;-77
2024/03/12 00:35:35;;;;;;;0.30;0.20;;;10.40;99.90;;;;;;5065108;28;20188;-75
2024/03/12 00:38:03;;;;;;;0.30;0.20;;;10.30;99.90;;;;;;5063436;28;20819;-75
2024/03/12 00:40:36;;;;;;;0.30;0.20;;;10.30;99.90;;;;;;5063831;28;20192;-75
2024/03/12 00:43:03;;;;;;;0.30;0.20;;;10.40;99.90;;;;;;5063347;28;20247;-75
2024/03/12 00:45:38;;;;;;;0.30;0.20;;;10.40;99.90;;;;;;5063672;28;20564;-78
2024/03/12 00:48:05;;;;;;;0.30;0.20;;;10.50;99.90;;;;;;5064614;28;20503;-77
2024/03/12 00:50:36;;;;;;;0.30;0.20;;;10.50;99.90;;;;;;5067016;28;20181;-75
2024/03/12 00:53:02;;;;;;;0.30;0.20;;;10.50;99.90;;;;;;5068538;28;20601;-78
2024/03/12 00:55:28;;;;;;;0.30;0.20;;;10.40;99.90;;;;;;5068624;28;20325;-75
2024/03/12 00:57:55;;;;;;;0.30;0.20;;;10.40;99.90;;;;;;5068191;28;20430;-78
2024/03/12 01:00:28;;;;;;;0.30;0.20;;;10.40;99.90;;;;;;5067154;28;20186;-75
2024/03/12 01:02:58;;;;;;;0.30;0.20;;;10.30;99.90;;;;;;5068256;28;20199;-75
2024/03/12 01:05:25;;;;;;;0.30;0.20;;;10.20;99.90;;;;;;5068514;28;20219;-75
2024/03/12 01:07:58;;;;;;;0.30;0.20;;;10.30;99.90;;;;;;5068121;28;20562;-75
2024/03/12 01:10:26;;;;;;;0.30;0.20;;;10.20;99.90;;;;;;5068692;28;20570;-78
2024/03/12 01:12:53;;;;;;;0.30;0.20;;;10.20;99.90;;;;;;5066640;28;20224;-75
2024/03/12 01:15:20;;;;;;;0.30;0.20;;;10.20;99.90;;;;;;5068207;28;20344;-75
2024/03/12 01:17:50;;;;;;;0.30;0.20;;;10.10;99.90;;;;;;5067882;28;20185;-77
2024/03/12 01:20:16;;;;;;;0.30;0.20;;;10.10;99.90;;;;;;5066942;28;20264;-75
2024/03/12 01:22:43;;;;;;;0.30;0.20;;;10.10;99.90;;;;;;5067653;28;20220;-75
2024/03/12 01:25:10;;;;;;;0.30;0.20;;;10.00;99.90;;;;;;5066652;28;20263;-75
2024/03/12 01:27:36;;;;;;;0.30;0.20;;;10.00;99.90;;;;;;5066505;28;20478;-78
2024/03/12 01:30:06;;;;;;;0.30;0.20;;;10.10;99.90;;;;;;5068372;28;20355;-76
2024/03/12 01:32:33;;;;;;;2.55;2.45;;;10.10;99.90;;;;;;5067714;28;20197;-75
2024/03/12 01:34:59;;;;;;;0.30;0.20;;;10.00;99.90;;;;;;5067940;28;20179;-75
2024/03/12 01:37:25;;;;;;;0.30;0.20;;;10.00;99.90;;;;;;5067376;28;20259;-75
2024/03/12 01:39:54;;;;;;;0.30;0.20;;;10.00;99.90;;;;;;5067863;28;20412;-75
2024/03/12 01:42:23;;;;;;;0.30;0.20;;;9.90;99.90;;;;;;5067823;28;20173;-77
2024/03/12 01:44:52;;;;;;;0.30;0.20;;;9.90;99.90;;;;;;5067298;28;20216;-75
2024/03/12 01:47:18;;;;;;;0.30;0.30;;;9.90;99.90;;;;;;5065248;28;20184;-76
2024/03/12 01:49:48;;;;;;;0.30;0.20;;;9.90;99.90;;;;;;5066111;28;20188;-78
2024/03/12 01:52:22;;;;;;;0.47;0.47;;;9.90;99.90;;;;;;5067395;28;20184;-75
2024/03/12 01:54:51;;;;;;;0.30;0.20;;;10.00;99.90;;;;;;5067435;28;20255;-78
2024/03/12 01:57:17;;;;;;;0.30;0.20;;;10.00;99.90;;;;;;5067206;28;20181;-75
2024/03/12 01:59:42;;;;;;;0.53;0.50;;;9.90;99.90;;;;;;5067014;28;20589;-75
2024/03/12 02:02:15;;;;;;;0.40;0.20;;;9.80;99.90;;;;;;5067153;28;20231;-77
2024/03/12 02:04:41;;;;;;;0.30;0.20;;;9.80;99.90;;;;;;5067398;28;20564;-75
2024/03/12 02:07:09;;;;;;;0.30;0.20;;;9.80;99.90;;;;;;5066776;28;20177;-77
2024/03/12 02:09:35;;;;;;;0.30;0.30;;;9.80;99.90;;;;;;5066085;28;20173;-78
2024/03/12 02:12:00;;;;;;;0.30;0.20;;;9.70;99.90;;;;;;5066989;28;20187;-76
2024/03/12 02:14:26;;;;;;;0.30;0.20;;;9.60;99.90;;;;;;5065376;28;20474;-75
2024/03/12 02:16:51;;;;;;;0.30;0.20;;;9.60;99.90;;;;;;5066955;28;20181;-76
2024/03/12 02:19:18;;;;;;;0.30;0.20;;;9.60;99.90;;;;;;5065927;28;20209;-75
2024/03/12 02:21:44;;;;;;;0.30;0.20;;;9.50;99.90;;;;;;5066697;28;20180;-75
2024/03/12 02:24:10;;;;;;;0.30;0.20;;;9.40;99.90;;;;;;5065527;28;20702;-78
2024/03/12 02:26:36;;;;;;;0.30;0.20;;;9.30;99.90;;;;;;5065757;28;20181;-75
2024/03/12 02:29:01;;;;;;;0.30;0.20;;;9.30;99.90;;;;;;5065413;28;20204;-77
2024/03/12 02:31:27;;;;;;;0.30;0.20;;;9.20;99.90;;;;;;5067175;28;20367;-78
2024/03/12 02:33:54;;;;;;;0.30;0.20;;;9.20;99.90;;;;;;5064897;28;20234;-76
2024/03/12 02:36:20;;;;;;;0.40;0.40;;;9.20;99.90;;;;;;5067068;28;20181;-75
2024/03/12 02:38:46;;;;;;;0.30;0.20;;;9.20;99.90;;;;;;5064959;28;20769;-75
2024/03/12 02:41:11;;;;;;;0.30;0.20;;;9.10;99.90;;;;;;5066986;28;20264;-75
2024/03/12 02:43:37;;;;;;;0.30;0.20;;;9.10;99.90;;;;;;5066498;28;20480;-78
2024/03/12 02:46:04;;;;;;;0.30;0.20;;;9.00;99.90;;;;;;5065531;28;20188;-77
2024/03/12 02:48:30;;;;;;;0.30;0.20;;;9.00;99.90;;;;;;5064904;28;20864;-78
2024/03/12 02:50:56;;;;;;;0.30;0.30;;;9.00;99.90;;;;;;5066714;28;20189;-75
2024/03/12 02:53:22;;;;;;;0.30;0.20;;;9.00;99.90;;;;;;5066499;28;20666;-77
2024/03/12 02:55:48;;;;;;;0.30;0.20;;;8.90;99.90;;;;;;5066396;28;20169;-77
2024/03/12 02:58:15;;;;;;;0.30;0.20;;;8.90;99.90;;;;;;5065758;28;20207;-75
2024/03/12 03:00:41;;;;;;;0.30;0.20;;;8.80;99.90;;;;;;5066379;28;20410;-75
2024/03/12 03:03:07;;;;;;;0.30;0.20;;;8.70;99.90;;;;;;5066225;28;20640;-78
2024/03/12 03:05:33;;;;;;;0.30;0.20;;;8.70;99.90;;;;;;5064734;28;20224;-75
2024/03/12 03:07:58;;;;;;;0.30;0.20;;;8.70;99.90;;;;;;5065797;28;20223;-75
2024/03/12 03:10:24;;;;;;;0.30;0.20;;;8.70;99.90;;;;;;5065729;28;20181;-76
2024/03/12 03:12:51;;;;;;;0.30;0.20;;;8.70;99.90;;;;;;5063545;28;20197;-77
2024/03/12 03:15:18;;;;;;;0.30;0.20;;;8.70;99.90;;;;;;5066428;28;20636;-75
2024/03/12 03:17:45;;;;;;;0.30;0.20;;;8.70;99.90;;;;;;5065504;28;20181;-75
2024/03/12 03:20:12;;;;;;;0.30;0.20;;;8.80;99.90;;;;;;5064424;28;20590;-75
2024/03/12 03:22:47;;;;;;;0.30;0.20;;;8.80;99.90;;;;;;5064411;28;20193;-75
2024/03/12 03:25:13;;;;;;;0.40;0.40;;;8.80;99.90;;;;;;5065817;28;20216;-74
2024/03/12 03:27:38;;;;;;;0.30;0.20;;;8.70;99.90;;;;;;5065229;28;20310;-77
2024/03/12 03:30:07;;;;;;;0.30;0.20;;;8.70;99.90;;;;;;5066035;28;20410;-78
2024/03/12 03:32:35;;;;;;;0.30;0.20;;;8.70;99.90;;;;;;5064180;28;20462;-77
2024/03/12 03:35:03;;;;;;;0.30;0.20;;;8.60;99.90;;;;;;5065488;28;20169;-78
2024/03/12 03:37:34;;;;;;;0.30;0.20;;;8.50;99.90;;;;;;5065340;28;20189;-78
2024/03/12 03:40:22;;;;;;;0.30;0.20;;;8.50;99.90;;;;;;5065738;28;20253;-78
2024/03/12 03:42:51;;;;;;;0.30;0.20;;;8.50;99.90;;;;;;5065567;28;20245;-75
2024/03/12 03:45:18;;;;;;;0.30;0.20;;;8.40;99.90;;;;;;5065416;28;20252;-79
2024/03/12 03:47:44;;;;;;;0.30;0.20;;;8.40;99.90;;;;;;5063984;28;20299;-79
2024/03/12 03:50:10;;;;;;;0.30;0.20;;;8.50;99.90;;;;;;5064243;28;20207;-75
2024/03/12 03:52:38;;;;;;;0.30;0.20;;;8.50;99.90;;;;;;5065400;28;20201;-77
2024/03/12 03:55:06;;;;;;;0.30;0.20;;;8.50;99.90;;;;;;5064045;28;20263;-78
2024/03/12 03:57:32;;;;;;;0.30;0.20;;;8.60;99.90;;;;;;5065362;28;20698;-78
2024/03/12 03:59:58;;;;;;;0.30;0.20;;;8.70;99.90;;;;;;5065415;28;20414;-75
2024/03/12 04:02:23;;;;;;;0.30;0.20;;;8.80;99.90;;;;;;5065224;28;20646;-75
2024/03/12 04:04:52;;;;;;;0.30;0.20;;;8.80;99.90;;;;;;5065081;28;20212;-75
2024/03/12 04:07:19;;;;;;;0.30;0.20;;;8.90;99.90;;;;;;5065128;28;20173;-75
2024/03/12 04:09:45;;;;;;;0.30;0.20;;;9.00;99.90;;;;;;5065501;28;20256;-75
2024/03/12 04:12:11;;;;;;;0.30;0.20;;;9.00;99.90;;;;;;5063427;28;20181;-75
2024/03/12 04:14:38;;;;;;;0.30;0.20;;;9.10;99.90;;;;;;5063758;28;20257;-78
2024/03/12 04:17:03;;;;;;;0.30;0.20;;;9.10;99.90;;;;;;5065203;28;20602;-75
2024/03/12 04:19:32;;;;;;;0.30;0.20;;;9.20;99.90;;;;;;5065042;28;20242;-77
2024/03/12 04:21:58;;;;;;;0.30;0.20;;;9.20;99.90;;;;;;5064959;28;20193;-78
2024/03/12 04:24:27;;;;;;;0.30;0.20;;;9.20;99.90;;;;;;5068606;28;20213;-77
2024/03/12 04:26:54;;;;;;;0.30;0.20;;;9.20;99.90;;;;;;5069018;28;20647;-78
2024/03/12 04:29:20;;;;;;;0.30;0.20;;;9.20;99.90;;;;;;5069493;28;20224;-79
2024/03/12 04:31:45;;;;;;;0.30;0.20;;;9.20;99.90;;;;;;5067675;28;20205;-75
2024/03/12 04:34:12;;;;;;;0.30;0.20;;;9.10;99.90;;;;;;5069038;28;20197;-77
2024/03/12 04:36:37;;;;;;;17.67;16.00;;;9.10;99.90;;;;;;5067764;28;20213;-77
2024/03/12 04:41:48;;;;;;;0.30;0.20;;;9.00;99.90;;;;;;5068652;28;20196;-75
2024/03/12 04:44:13;;;;;;;0.30;0.20;;;9.00;99.90;;;;;;5068443;28;20213;-75
2024/03/12 04:46:45;;;;;;;0.30;0.20;;;8.90;99.90;;;;;;5069238;28;20169;-77
2024/03/12 04:49:10;;;;;;;0.30;0.20;;;8.90;99.90;;;;;;5066841;28;20442;-77
2024/03/12 04:51:36;;;;;;;0.30;0.20;;;8.90;99.90;;;;;;5067670;28;20190;-78
2024/03/12 04:54:02;;;;;;;0.30;0.20;;;8.90;99.90;;;;;;5066708;28;20238;-74
2024/03/12 04:56:27;;;;;;;0.30;0.20;;;8.90;99.90;;;;;;5067119;28;20269;-75
2024/03/12 04:58:53;;;;;;;0.30;0.20;;;8.90;99.90;;;;;;5066521;28;20204;-78
2024/03/12 05:01:19;;;;;;;0.30;0.20;;;8.90;99.90;;;;;;5068550;28;20713;-75
2024/03/12 05:03:45;;;;;;;0.30;0.20;;;8.90;99.90;;;;;;5067636;28;20217;-75
2024/03/12 05:06:12;;;;;;;0.30;0.20;;;8.80;99.90;;;;;;5068363;28;20173;-78
2024/03/12 05:08:37;;;;;;;0.30;0.20;;;8.80;99.90;;;;;;5067961;28;20682;-76
2024/03/12 05:11:03;;;;;;;0.30;0.20;;;8.80;99.90;;;;;;5066237;28;20205;-75
2024/03/12 05:13:29;;;;;;;0.30;0.20;;;8.80;99.90;;;;;;5066509;28;20205;-75
2024/03/12 05:15:54;;;;;;;0.30;0.20;;;8.80;99.90;;;;;;5068075;28;20189;-74
2024/03/12 05:18:21;;;;;;;0.30;0.20;;;8.80;99.90;;;;;;5067646;28;20681;-81
2024/03/12 05:20:47;;;;;;;0.30;0.20;;;8.80;99.90;;;;;;5067556;28;20200;-75
2024/03/12 05:23:13;;;;;;;0.30;0.20;;;8.80;99.90;;;;;;5067254;28;20189;-75
2024/03/12 05:25:39;;;;;;;0.30;0.20;;;8.80;99.90;;;;;;5067257;28;20515;-75
2024/03/12 05:28:08;;;;;;;0.30;0.20;;;8.80;99.90;;;;;;5067518;28;20220;-82
2024/03/12 05:30:40;;;;;;;0.30;0.20;;;8.80;99.90;;;;;;5087534;28;20194;-81
2024/03/12 05:33:10;;;;;;;0.30;0.20;;;8.80;99.90;;;;;;5070414;28;20209;-81
2024/03/12 05:35:38;;;;;;;0.30;0.20;;;8.80;99.90;;;;;;5077050;28;20544;-75
2024/03/12 05:49:14;;;;;;;0.30;0.20;;;8.30;99.90;;;;;;5087297;28;20696;-74
2024/03/12 05:51:39;;;;;;;0.30;0.20;;;8.20;99.90;;;;;;5082831;28;20322;-80
2024/03/12 05:54:05;;;;;;;0.30;0.20;;;8.20;99.90;;;;;;5070672;28;20287;-74
2024/03/12 05:56:31;;;;;;;0.30;0.20;;;8.20;99.90;;;;;;5082299;28;20673;-80
2024/03/12 05:59:01;;;;;;;0.30;0.20;;;8.20;99.90;;;;;;5086980;28;20195;-75
2024/03/12 06:01:27;;;;;;;0.30;0.20;;;8.10;99.90;;;;;;5071154;28;20751;-75
2024/03/12 06:03:53;;;;;;;0.30;0.20;;;8.10;99.90;;;;;;5065952;28;20199;-81
2024/03/12 06:06:19;;;;;;;0.30;0.20;;;8.10;99.90;;;;;;5074944;28;20944;-75
2024/03/12 06:08:45;;;;;;;0.30;0.20;;;8.20;99.90;;;;;;5069066;28;20287;-81
2024/03/12 06:11:12;;;;;;;0.30;0.20;;;8.10;99.90;;;;;;5078983;28;20407;-74
2024/03/12 06:13:38;;;;;;;0.30;0.20;;;8.10;99.90;;;;;;5078443;28;20200;-75
2024/03/12 06:16:07;;;;;;;24.55;22.52;;;8.20;99.90;;;;;;5076131;28;20212;-74
2024/03/12 06:18:33;;;;;;;0.30;0.20;;;8.20;99.90;;;;;;5083793;28;20766;-79
2024/03/12 06:20:59;;;;;;;0.30;0.20;;;8.30;99.90;;;;;;5076748;28;20193;-74
2024/03/12 06:23:25;;;;;;;0.30;0.20;;;8.30;99.90;;;;;;5102388;28;20277;-80
2024/03/12 06:25:52;;;;;;;0.30;0.20;;;8.30;99.90;;;;;;5071381;28;20224;-74
2024/03/12 06:28:21;;;;;;;0.30;0.20;;;8.30;99.90;;;;;;5065781;28;20196;-80
2024/03/12 06:30:50;;;;;;;0.30;0.20;;;8.30;99.90;;;;;;5068167;28;20181;-74
2024/03/12 06:33:18;;;;;;;0.30;0.28;;;8.40;99.90;;;;;;5076538;28;20201;-81
2024/03/12 06:35:47;;;;;;;0.30;0.20;;;8.50;99.90;;;;;;5064854;28;20191;-74
2024/03/12 06:38:20;;;;;;;0.30;0.20;;;8.60;99.90;;;;;;5064889;28;20594;-80
2024/03/12 06:40:48;;;;;;;0.30;0.20;;;8.60;99.90;;;;;;5073007;28;20181;-74
2024/03/12 06:43:14;;;;;;;0.30;0.20;;;8.60;99.90;;;;;;5064187;28;20189;-80
2024/03/12 06:45:40;;;;;;;0.30;0.20;;;8.70;99.90;;;;;;5063577;28;20315;-80
2024/03/12 06:48:07;;;;;;;0.30;0.20;;;8.80;99.90;;;;;;5078186;28;20276;-80
2024/03/12 06:50:32;;;;;;;0.30;0.20;;;8.90;99.90;;;;;;5077742;28;20219;-80
2024/03/12 06:52:59;;;;;;;0.30;0.20;;;8.90;99.90;;;;;;5082582;28;20207;-75
2024/03/12 06:55:25;;;;;;;0.30;0.20;;;9.00;99.90;;;;;;5072770;28;20335;-81
2024/03/12 06:58:02;;;;;;;0.30;0.20;;;9.10;99.90;;;;;;5074019;28;20707;-80
2024/03/12 07:00:37;;;;;;;0.30;0.20;;;9.10;99.90;;;;;;5070393;28;20209;-75
2024/03/12 07:03:06;;;;;;;0.30;0.20;;;9.20;99.90;;;;;;5069291;28;20612;-74
2024/03/12 07:05:43;;;;;;;0.30;0.20;;;9.40;99.90;;;;;;5066255;28;20216;-81
2024/03/12 07:08:10;;;;;;;0.30;0.20;;;9.50;99.90;;;;;;5077468;28;20205;-80
2024/03/12 07:10:40;;;;;;;0.30;0.20;;;9.70;99.90;;;;;;5067995;28;20208;-81
2024/03/12 07:13:07;;;;;;;0.30;0.20;;;9.70;99.90;;;;;;5079998;28;20776;-74
2024/03/12 07:15:35;;;;;;;0.30;0.20;;;9.80;99.90;;;;;;5076440;28;20273;-80
2024/03/12 07:18:05;;;;;;;0.30;0.20;;;9.80;99.90;;;;;;5077289;28;20527;-80
2024/03/12 07:20:34;;;;;;;0.30;0.20;;;9.90;99.90;;;;;;5068564;28;20192;-74
2024/03/12 07:23:06;;;;;;;0.30;0.20;;;10.00;99.90;;;;;;5071828;28;20404;-74
2024/03/12 07:25:32;;;;;;;0.30;0.20;;;10.00;99.90;;;;;;5067727;28;20310;-81
2024/03/12 07:28:05;;;;;;;0.30;0.20;;;10.10;99.90;;;;;;5077792;28;20397;-80
2024/03/12 07:30:32;;;;;;;0.30;0.20;;;10.20;99.90;;;;;;5078721;28;20458;-74
2024/03/12 07:32:58;;;;;;;0.30;0.20;;;10.30;99.90;;;;;;5077381;28;20208;-75
2024/03/12 07:35:23;;;;;;;0.30;0.20;;;10.30;99.90;;;;;;5078957;28;20285;-80
2024/03/12 07:37:49;;;;;;;0.30;0.20;;;10.30;99.90;;;;;;5079365;28;20201;-74
2024/03/12 07:40:15;;;;;;;0.30;0.20;;;10.40;99.90;;;;;;5080305;28;20188;-79
2024/03/12 07:42:42;;;;;;;0.30;0.20;;;10.50;99.90;;;;;;5080649;28;20757;-80
2024/03/12 07:45:12;;;;;;;0.30;0.20;;;10.60;99.90;;;;;;5075406;28;20374;-80
2024/03/12 07:47:41;;;;;;;0.30;0.20;;;10.60;99.90;;;;;;5080646;28;20203;-80
2024/03/12 07:50:08;;;;;;;1.20;1.20;;;10.60;99.90;;;;;;5080160;28;20206;-81
2024/03/12 07:52:35;;;;;;;4.80;4.60;;;10.60;99.90;;;;;;5074299;28;20596;-74
2024/03/12 07:55:03;;;;;;;0.65;0.63;;;10.70;99.90;;;;;;5067583;28;20184;-80
2024/03/12 07:57:33;;;;;;;0.30;0.20;;;10.80;99.90;;;;;;5065251;28;20196;-74
2024/03/12 08:00:05;;;;;;;0.30;0.20;;;10.90;99.90;;;;;;5076849;28;20355;-80
2024/03/12 08:02:31;;;;;;;0.35;0.35;;;11.00;99.90;;;;;;5073012;28;20285;-74
2024/03/12 08:04:57;;;;;;;0.30;0.20;;;11.00;99.90;;;;;;5076231;28;20224;-74
2024/03/12 08:07:23;;;;;;;0.30;0.20;;;11.10;99.90;;;;;;5078091;28;20192;-79
2024/03/12 08:09:49;;;;;;;0.30;0.20;;;11.20;99.90;;;;;;5077098;28;20681;-79
2024/03/12 08:12:19;;;;;;;0.30;0.20;;;11.30;99.90;;;;;;5073505;28;20172;-80
2024/03/12 08:14:45;;;;;;;0.30;0.20;;;11.50;99.90;;;;;;5072631;28;20954;-75
2024/03/12 08:17:12;;;;;;;0.30;0.20;;;11.60;99.90;;;;;;5073772;28;20188;-82
2024/03/12 08:19:39;;;;;;;1.03;1.00;;;11.70;99.90;;;;;;5071338;28;20176;-76
2024/03/12 08:22:04;;;;;;;0.30;0.20;;;11.90;99.90;;;;;;5070197;28;20723;-76
2024/03/12 08:24:30;;;;;;;0.30;0.20;;;12.10;99.90;;;;;;5070047;28;20843;-80
2024/03/12 08:26:59;;;;;;;0.30;0.20;;;12.60;99.90;;;;;;5068331;28;20180;-74
2024/03/12 08:29:26;;;;;;;0.30;0.20;;;13.20;99.90;;;;;;5068284;28;20474;-75
2024/03/12 08:31:53;;;;;;;0.40;0.20;;;13.70;99.90;;;;;;5066437;28;20759;-80
2024/03/12 08:34:18;;;;;;;0.30;0.30;;;14.30;99.90;;;;;;5068211;28;20662;-80
2024/03/12 08:36:47;;;;;;;0.30;0.20;;;14.80;99.90;;;;;;5067456;28;20741;-81
2024/03/12 08:39:14;;;;;;;0.40;0.40;;;15.30;99.90;;;;;;5068311;28;20208;-81
2024/03/12 08:41:40;;;;;;;0.30;0.20;;;15.90;99.90;;;;;;5064521;28;20455;-81
2024/03/12 08:44:09;;;;;;;0.30;0.20;;;16.50;99.90;;;;;;5070021;28;20542;-76
2024/03/12 08:46:35;;;;;;;3.37;3.13;;;17.00;99.90;;;;;;5068492;28;20531;-81
2024/03/12 08:49:01;;;;;;;0.37;0.30;;;17.30;99.90;;;;;;5076304;28;20784;-76
2024/03/12 08:51:33;;;;;;;0.30;0.20;;;17.70;99.90;;;;;;5095632;28;20446;-75
2024/03/12 08:54:01;;;;;;;0.30;0.20;;;18.10;99.90;;;;;;5079016;28;20786;-82
2024/03/12 08:56:29;;;;;;;0.30;0.20;;;18.50;99.90;;;;;;5071302;28;20473;-75
2024/03/12 08:58:57;;;;;;;0.30;0.20;;;18.30;99.90;;;;;;5066645;28;20793;-81
2024/03/12 09:01:23;;;;;;;0.30;0.20;;;17.70;99.90;;;;;;5075151;28;21053;-82
2024/03/12 09:03:49;;;;;;;0.30;0.20;;;17.00;99.90;;;;;;5079497;28;20458;-75
2024/03/12 09:06:18;;;;;;;0.30;0.20;;;16.70;99.90;;;;;;5069434;28;20814;-82
2024/03/12 09:08:44;;;;;;;0.30;0.20;;;16.30;99.90;;;;;;5070614;28;20219;-74
2024/03/12 09:11:16;;;;;;;0.30;0.20;;;15.80;99.90;;;;;;5082177;28;20436;-74
2024/03/12 09:13:42;;;;;;;0.30;0.20;;;15.70;99.90;;;;;;5083902;28;20913;-81
2024/03/12 09:16:12;;;;;;;0.30;0.20;;;15.40;99.90;;;;;;5083206;28;20528;-74
2024/03/12 09:18:44;;;;;;;0.30;0.20;;;15.30;99.90;;;;;;5075885;28;20429;-76
2024/03/12 09:21:13;;;;;;;0.40;0.20;;;15.10;99.90;;;;;;5077604;28;20436;-75
2024/03/12 09:23:42;;;;;;;0.30;0.20;;;15.00;99.90;;;;;;5078211;28;20461;-81
2024/03/12 09:26:08;;;;;;;0.30;0.20;;;15.60;99.90;;;;;;5080393;28;20483;-75
2024/03/12 09:28:36;;;;;;;0.30;0.20;;;16.10;99.90;;;;;;5078171;28;20448;-75
2024/03/12 09:31:04;;;;;;;0.30;0.20;;;15.80;99.90;;;;;;5076127;28;20191;-81
2024/03/12 09:33:30;;;;;;;0.30;0.20;;;15.50;99.90;;;;;;5081783;28;20980;-75
2024/03/12 09:35:56;;;;;;;0.30;0.20;;;15.50;99.90;;;;;;5079457;28;20441;-75
2024/03/12 09:38:22;;;;;;;0.30;0.20;;;15.60;99.90;;;;;;5074080;28;20441;-76
2024/03/12 09:40:50;;;;;;;0.30;0.20;;;15.80;99.90;;;;;;5075336;28;20602;-75
2024/03/12 09:43:18;;;;;;;0.30;0.20;;;15.60;99.90;;;;;;5078286;28;20441;-82
2024/03/12 09:45:45;;;;;;;0.30;0.20;;;15.40;99.90;;;;;;5081035;28;20488;-81
2024/03/12 09:48:16;;;;;;;0.30;0.20;;;15.40;99.90;;;;;;5082236;28;20696;-76
2024/03/12 09:50:42;;;;;;;0.30;0.20;;;15.60;99.90;;;;;;5080809;28;20568;-74
2024/03/12 09:53:11;;;;;;;0.30;0.20;;;15.70;99.90;;;;;;5080308;28;20625;-79
2024/03/12 09:55:39;;;;;;;0.30;0.20;;;15.80;99.90;;;;;;5077383;28;20222;-74
2024/03/12 09:58:06;;;;;;;0.40;0.33;;;15.90;99.90;;;;;;5077817;28;21001;-80
2024/03/12 10:00:33;;;;;;;0.30;0.20;;;16.00;99.90;;;;;;5078685;28;20661;-73
2024/03/12 10:02:59;;;;;;;0.30;0.20;;;16.00;99.90;;;;;;5082267;28;20927;-74
2024/03/12 10:05:25;;;;;;;0.30;0.20;;;15.90;99.90;;;;;;5079743;28;21095;-73
2024/03/12 10:08:17;;;;;;;0.30;0.20;;;15.90;99.90;;;;;;5078678;28;20452;-80
2024/03/12 10:10:43;;;;;;;0.30;0.20;;;16.10;99.90;;;;;;5076341;28;21115;-80
2024/03/12 10:13:19;;;;;;;0.30;0.20;;;16.20;99.90;;;;;;5082514;28;20459;-74
2024/03/12 10:15:59;;;;;;;0.30;0.20;;;15.90;99.90;;;;;;5071066;28;20592;-79
2024/03/12 10:18:26;;;;;;;0.30;0.20;;;15.50;99.90;;;;;;5081893;28;20527;-73
2024/03/12 10:20:55;;;;;;;0.30;0.20;;;15.40;99.90;;;;;;5078104;28;20432;-73
2024/03/12 10:23:26;;;;;;;0.30;0.20;;;15.40;99.90;;;;;;5079533;28;20503;-81
2024/03/12 10:25:53;;;;;;;0.30;0.20;;;15.30;99.90;;;;;;5076754;28;20480;-79
2024/03/12 10:28:29;;;;;;;0.30;0.20;;;15.10;99.90;;;;;;5081331;28;20449;-72
2024/03/12 10:31:08;;;;;;;0.30;0.20;;;15.00;99.90;;;;;;5077637;28;20445;-79
2024/03/12 10:33:36;;;;;;;0.70;0.67;;;14.90;99.90;;;;;;5059890;28;20421;-79
2024/03/12 10:36:02;;;;;;;0.30;0.20;;;14.80;99.90;;;;;;5087494;28;20432;-79
2024/03/12 10:38:32;;;;;;;0.30;0.20;;;14.80;99.90;;;;;;5076914;28;20842;-73
2024/03/12 10:41:12;;;;;;;0.30;0.20;;;14.80;99.90;;;;;;5077429;28;20463;-73
2024/03/12 10:43:38;;;;;;;0.30;0.20;;;14.70;99.90;;;;;;5077928;28;20537;-79
2024/03/12 10:46:05;;;;;;;0.30;0.20;;;14.70;99.90;;;;;;5082190;28;20508;-81
2024/03/12 10:48:36;;;;;;;0.30;0.20;;;14.70;99.90;;;;;;5081809;28;20188;-79
2024/03/12 10:51:03;;;;;;;0.30;0.20;;;14.60;99.90;;;;;;5076067;28;20437;-73
2024/03/12 10:53:29;;;;;;;0.40;0.20;;;14.60;99.90;;;;;;5070664;28;20437;-73
2024/03/12 10:55:57;;;;;;;0.30;0.20;;;14.70;99.90;;;;;;5079146;28;20466;-73
2024/03/12 10:58:25;;;;;;;0.30;0.20;;;14.70;99.90;;;;;;5081111;28;20710;-78
2024/03/12 11:00:51;;;;;;;0.40;0.37;;;14.90;99.90;;;;;;5079475;28;20523;-73
2024/03/12 11:03:23;;;;;;;0.40;0.40;;;14.90;99.90;;;;;;5075716;28;20480;-73
2024/03/12 11:05:59;;;;;;;0.30;0.20;;;14.90;99.90;;;;;;5078851;28;21207;-75
2024/03/12 11:08:25;;;;;;;0.30;0.20;;;15.10;99.90;;;;;;5074956;28;20448;-83
2024/03/12 11:10:52;;;;;;;0.30;0.20;;;15.00;99.90;;;;;;5078317;28;20432;-76
2024/03/12 11:13:20;;;;;;;0.30;0.20;;;14.90;99.90;;;;;;5080399;28;20547;-75
2024/03/12 11:15:46;;;;;;;2.10;2.00;;;14.90;99.90;;;;;;5079805;28;20560;-75
2024/03/12 11:18:14;;;;;;;0.30;0.20;;;14.90;99.90;;;;;;5078684;28;20981;-76
2024/03/12 11:20:40;;;;;;;0.30;0.20;;;14.90;99.90;;;;;;5077221;28;20983;-75
2024/03/12 11:23:06;;;;;;;0.30;0.20;;;15.00;99.90;;;;;;5081208;28;20440;-74
2024/03/12 11:25:38;;;;;;;0.30;0.20;;;15.10;99.90;;;;;;5086857;28;20479;-81
2024/03/12 11:28:22;;;;;;;0.30;0.20;;;15.10;99.90;;;;;;5087849;28;20444;-75
2024/03/12 11:31:08;;;;;;;0.30;0.20;;;15.20;99.90;;;;;;5063331;28;20486;-82
2024/03/12 11:33:54;;;;;;;0.30;0.20;;;15.30;99.90;;;;;;5078329;28;20445;-83
2024/03/12 11:36:26;;;;;;;0.30;0.20;;;15.30;99.90;;;;;;5083623;28;20456;-75
2024/03/12 11:38:52;;;;;;;0.40;0.30;;;15.20;99.90;;;;;;5072009;28;20449;-75
2024/03/12 11:41:21;;;;;;;7.70;7.30;;;14.90;99.90;;;;;;5069359;28;21006;-75
2024/03/12 11:43:48;;;;;;;0.30;0.20;;;14.90;99.90;;;;;;5068149;28;20922;-81
2024/03/12 11:46:21;;;;;;;0.30;0.20;;;15.00;99.90;;;;;;5070323;28;20975;-82
2024/03/12 11:48:48;;;;;;;0.30;0.20;;;15.20;99.90;;;;;;5070621;28;20429;-76
2024/03/12 11:51:53;;;;;;;0.30;0.20;;;15.40;99.90;;;;;;5067628;28;21134;-76
2024/03/12 11:54:41;;;;;;;0.30;0.30;;;15.40;99.90;;;;;;5063886;28;20458;-76
2024/03/12 11:57:32;;;;;;;3.17;3.07;;;15.50;99.90;;;;;;5073625;28;20509;-76
2024/03/12 11:59:59;;;;;;;0.30;0.20;;;15.50;99.90;;;;;;5066401;28;20950;-84
2024/03/12 12:02:26;;;;;;;0.67;0.67;;;15.50;99.90;;;;;;5074244;28;20413;-74
2024/03/12 12:04:54;;;;;;;0.30;0.20;;;15.50;99.90;;;;;;5078604;28;20549;-75
2024/03/12 12:07:27;;;;;;;0.30;0.20;;;15.60;99.90;;;;;;5076331;28;20516;-80
2024/03/12 12:09:53;;;;;;;0.30;0.20;;;15.70;99.90;;;;;;5068000;28;20436;-81
2024/03/12 12:12:20;;;;;;;0.30;0.20;;;15.80;99.90;;;;;;5068849;28;20448;-74
2024/03/12 12:14:47;;;;;;;0.30;0.20;;;15.80;99.90;;;;;;5068659;28;20299;-79
2024/03/12 12:17:21;;;;;;;0.30;0.20;;;15.80;99.90;;;;;;5067869;28;20775;-78
2024/03/12 12:20:04;;;;;;;0.30;0.20;;;15.60;99.90;;;;;;5067442;28;20483;-78
2024/03/12 12:22:32;;;;;;;0.30;0.20;;;15.60;99.90;;;;;;5065550;28;21246;-77
2024/03/12 12:25:02;;;;;;;0.30;0.20;;;15.60;99.90;;;;;;5068065;28;20618;-78
2024/03/12 12:27:28;;;;;;;0.30;0.20;;;15.70;99.90;;;;;;5068053;28;20475;-78
2024/03/12 12:29:55;;;;;;;0.40;0.30;;;15.80;99.90;;;;;;5066118;28;21001;-77
2024/03/12 12:32:22;;;;;;;0.30;0.20;;;15.80;99.90;;;;;;5063378;28;21010;-77
2024/03/12 12:34:47;;;;;;;0.30;0.20;;;15.80;99.90;;;;;;5066176;28;20448;-77
2024/03/12 12:37:14;;;;;;;0.30;0.20;;;15.50;99.90;;;;;;5069713;28;20421;-77
2024/03/12 12:39:40;;;;;;;0.30;0.20;;;15.30;99.90;;;;;;5058911;28;20184;-77
2024/03/12 12:42:07;;;;;;;0.30;0.20;;;15.20;99.90;;;;;;5064459;28;20669;-77
2024/03/12 12:44:34;;;;;;;0.50;0.50;;;15.30;99.90;;;;;;5062794;28;20591;-77
2024/03/12 12:47:03;;;;;;;0.30;0.20;;;15.30;99.90;;;;;;5074887;28;20527;-77
2024/03/12 12:49:30;;;;;;;0.30;0.20;;;15.30;99.90;;;;;;5075634;28;21052;-78
2024/03/12 12:51:57;;;;;;;0.30;0.20;;;15.30;99.90;;;;;;5075133;28;20847;-76
2024/03/12 12:54:23;;;;;;;0.30;0.20;;;15.20;99.90;;;;;;5073034;28;20453;-76
2024/03/12 12:56:50;;;;;;;0.30;0.20;;;15.10;99.90;;;;;;5069944;28;20750;-77
2024/03/12 12:59:17;;;;;;;0.30;0.20;;;15.00;99.90;;;;;;5076395;28;20459;-76
2024/03/12 13:01:47;;;;;;;0.30;0.20;;;15.00;99.90;;;;;;5076276;28;20484;-78
2024/03/12 13:04:23;;;;;;;0.30;0.20;;;15.10;99.90;;;;;;5077733;28;20440;-75
2024/03/12 13:06:51;;;;;;;0.30;0.20;;;15.10;99.90;;;;;;5074983;28;21092;-77
2024/03/12 13:09:31;;;;;;;0.30;0.20;;;15.10;99.90;;;;;;5076448;28;20519;-78